Time;durP1;ratioP1;P1;durP2;ratioP2;P2;SDS_P1;SDS_P2;PMS_P1;PMS_P2;Temp;Humidity;BMP_temperature;BMP_pressure;BME280_temperature;BME280_humidity;BME280_pressure;Samples;Min_cycle;Max_cycle;Signal;HPM_P1;HPM_P2
2022/01/12 00:02:13;;;;;;;5.33;4.57;;;;;;;;;;5046452;28;20422;-54
2022/01/12 00:04:40;;;;;;;5.50;4.27;;;;;;;;;;5034968;28;20386;-55
2022/01/12 00:07:06;;;;;;;6.60;3.60;;;;;;;;;;5035076;28;20021;-53
2022/01/12 00:09:32;;;;;;;5.00;4.27;;;;;;;;;;5034219;28;20048;-53
2022/01/12 00:11:59;;;;;;;4.17;3.00;;;;;;;;;;5034823;28;20034;-54
2022/01/12 00:14:27;;;;;;;4.23;3.00;;;;;;;;;;5034857;28;20116;-55
2022/01/12 00:16:58;;;;;;;4.50;3.77;;;;;;;;;;5035216;28;20038;-53
2022/01/12 00:19:25;;;;;;;4.37;3.70;;;;;;;;;;5034059;28;20045;-51
2022/01/12 00:21:51;;;;;;;4.67;3.57;;;;;;;;;;5034908;28;20387;-52
2022/01/12 00:24:17;;;;;;;4.87;3.43;;;;;;;;;;5034503;28;20464;-52
2022/01/12 00:33:08;;;;;;;6.33;3.97;;;;;;;;;;5034396;28;20485;-52
2022/01/12 00:34:58;;;;;;;5.37;4.17;;;;;;;;;;5034740;28;20053;-51
2022/01/12 00:37:24;;;;;;;5.70;4.63;;;;;;;;;;5042789;28;20072;-52
2022/01/12 00:39:50;;;;;;;5.50;4.47;;;;;;;;;;5053821;28;20064;-55
2022/01/12 00:42:16;;;;;;;5.07;3.73;;;;;;;;;;5054585;28;20049;-54
2022/01/12 00:44:46;;;;;;;4.20;3.67;;;;;;;;;;5054349;28;20104;-53
2022/01/12 00:47:12;;;;;;;6.27;4.57;;;;;;;;;;5054366;28;20116;-51
2022/01/12 00:49:38;;;;;;;6.00;4.70;;;;;;;;;;5053661;28;20032;-53
2022/01/12 00:52:04;;;;;;;7.27;3.23;;;;;;;;;;5054428;28;20025;-55
2022/01/12 00:54:30;;;;;;;7.67;4.20;;;;;;;;;;5054363;28;20172;-52
2022/01/12 00:56:56;;;;;;;6.03;4.50;;;;;;;;;;5053837;28;20036;-51
2022/01/12 00:59:22;;;;;;;8.60;4.30;;;;;;;;;;5053395;28;20025;-52
2022/01/12 01:01:48;;;;;;;4.40;3.53;;;;;;;;;;5048753;28;20094;-54
2022/01/12 01:04:14;;;;;;;4.90;3.77;;;;;;;;;;5034136;28;20120;-53
2022/01/12 01:06:41;;;;;;;6.53;4.40;;;;;;;;;;5034096;28;20029;-50
2022/01/12 01:09:07;;;;;;;9.90;5.73;;;;;;;;;;5032706;28;20022;-55
2022/01/12 01:11:33;;;;;;;8.77;5.77;;;;;;;;;;5033753;28;20017;-51
2022/01/12 01:14:03;;;;;;;5.30;3.90;;;;;;;;;;5032753;28;20036;-52
2022/01/12 01:16:54;;;;;;;5.60;4.13;;;;;;;;;;5034087;28;20056;-54
2022/01/12 01:27:34;;;;;;;6.67;4.63;;;;;;;;;;5033834;28;20036;-54
2022/01/12 01:30:00;;;;;;;6.17;5.33;;;;;;;;;;5033054;28;20041;-55
2022/01/12 01:32:27;;;;;;;5.90;4.30;;;;;;;;;;5033370;28;20109;-55
2022/01/12 01:34:53;;;;;;;5.97;4.57;;;;;;;;;;5033550;28;20392;-53
2022/01/12 01:37:19;;;;;;;7.63;4.90;;;;;;;;;;5041160;28;20032;-52
2022/01/12 01:39:46;;;;;;;7.50;4.67;;;;;;;;;;5053017;28;20039;-54
2022/01/12 01:42:24;;;;;;;5.83;4.00;;;;;;;;;;5053285;28;20104;-53
2022/01/12 01:55:30;;;;;;;6.17;3.90;;;;;;;;;;5053031;28;20402;-54
2022/01/12 01:57:57;;;;;;;6.13;4.00;;;;;;;;;;5052526;28;20112;-55
2022/01/12 02:00:24;;;;;;;4.67;4.03;;;;;;;;;;5052897;28;20059;-52
2022/01/12 02:02:52;;;;;;;4.90;4.43;;;;;;;;;;5038957;28;20034;-54
2022/01/12 02:05:18;;;;;;;3.93;3.33;;;;;;;;;;5032915;28;20430;-55
2022/01/12 02:07:44;;;;;;;3.90;2.97;;;;;;;;;;5032372;28;20038;-52
2022/01/12 02:10:11;;;;;;;7.03;4.10;;;;;;;;;;5032317;28;20036;-50
2022/01/12 02:12:37;;;;;;;6.53;4.37;;;;;;;;;;5032837;28;20106;-52
2022/01/12 02:15:04;;;;;;;5.10;3.87;;;;;;;;;;5033080;28;20030;-53
2022/01/12 02:17:36;;;;;;;5.63;4.33;;;;;;;;;;5032733;28;20036;-52
2022/01/12 02:20:27;;;;;;;7.87;5.27;;;;;;;;;;5031067;28;20112;-51
2022/01/12 02:37:15;;;;;;;5.43;4.87;;;;;;;;;;5034535;28;20048;-54
2022/01/12 02:39:54;;;;;;;5.87;4.90;;;;;;;;;;5051682;28;20037;-52
2022/01/12 02:42:20;;;;;;;6.13;4.90;;;;;;;;;;5052461;28;20033;-54
2022/01/12 02:55:49;;;;;;;9.90;5.60;;;;;;;;;;5052143;28;20048;-52
2022/01/12 02:58:15;;;;;;;7.03;6.23;;;;;;;;;;5051474;28;20108;-52
2022/01/12 03:03:29;;;;;;;5.07;4.53;;;;;;;;;;5033667;28;20036;-53
2022/01/12 03:06:01;;;;;;;7.45;6.07;;;;;;;;;;5032093;28;20068;-55
2022/01/12 03:08:28;;;;;;;5.93;4.80;;;;;;;;;;5031317;28;20042;-54
2022/01/12 03:10:54;;;;;;;6.47;5.23;;;;;;;;;;5032246;28;20144;-51
2022/01/12 03:13:21;;;;;;;6.90;5.63;;;;;;;;;;5031977;28;20400;-55
2022/01/12 03:15:48;;;;;;;6.23;5.53;;;;;;;;;;5031962;28;20037;-54
2022/01/12 03:18:15;;;;;;;7.93;6.27;;;;;;;;;;5031278;28;20037;-55
2022/01/12 03:20:41;;;;;;;7.23;6.53;;;;;;;;;;5032196;28;20481;-51
2022/01/12 03:23:07;;;;;;;8.90;5.33;;;;;;;;;;5032122;28;20022;-55
2022/01/12 03:25:33;;;;;;;7.47;6.10;;;;;;;;;;5031953;28;20039;-53
2022/01/12 03:28:02;;;;;;;8.27;7.47;;;;;;;;;;5031303;28;20029;-54
2022/01/12 03:30:36;;;;;;;8.37;6.27;;;;;;;;;;5032175;28;20036;-54
2022/01/12 03:33:12;;;;;;;10.67;7.17;;;;;;;;;;5035749;28;20026;-53
2022/01/12 03:36:11;;;;;;;10.33;6.60;;;;;;;;;;5035770;28;20048;-55
2022/01/12 03:38:35;;;;;;;9.23;6.30;;;;;;;;;;5052883;28;20528;-52
2022/01/12 03:41:02;;;;;;;9.10;6.77;;;;;;;;;;5056044;28;20029;-55
2022/01/12 03:43:28;;;;;;;9.20;6.40;;;;;;;;;;5055462;28;20356;-53
2022/01/12 03:45:54;;;;;;;8.17;6.33;;;;;;;;;;5055481;28;20025;-54
2022/01/12 03:48:20;;;;;;;7.33;6.60;;;;;;;;;;5055203;28;20123;-55
2022/01/12 03:50:48;;;;;;;5.90;4.93;;;;;;;;;;5055454;28;20079;-53
2022/01/12 03:53:14;;;;;;;7.37;5.97;;;;;;;;;;5055348;28;20041;-53
2022/01/12 03:55:40;;;;;;;8.07;6.70;;;;;;;;;;5055259;28;20035;-50
2022/01/12 03:58:06;;;;;;;6.97;6.03;;;;;;;;;;5054415;28;20617;-53
2022/01/12 04:00:32;;;;;;;10.87;7.37;;;;;;;;;;5055194;28;20467;-55
2022/01/12 04:03:00;;;;;;;5.97;5.30;;;;;;;;;;5040218;28;20105;-55
2022/01/12 04:10:40;;;;;;;6.47;5.83;;;;;;;;;;5035024;28;20040;-55
2022/01/12 04:13:06;;;;;;;8.47;6.63;;;;;;;;;;5035548;28;20519;-52
2022/01/12 04:15:32;;;;;;;7.10;5.83;;;;;;;;;;5034750;28;20463;-55
2022/01/12 04:17:58;;;;;;;13.47;6.93;;;;;;;;;;5034266;28;20025;-50
2022/01/12 04:20:24;;;;;;;9.37;7.30;;;;;;;;;;5035132;28;20064;-55
2022/01/12 04:25:34;;;;;;;6.77;5.20;;;;;;;;;;5035062;28;20048;-53
2022/01/12 04:28:00;;;;;;;8.90;6.17;;;;;;;;;;5034206;28;20033;-54
2022/01/12 04:30:26;;;;;;;9.03;7.67;;;;;;;;;;5029859;28;20079;-51
2022/01/12 04:32:52;;;;;;;12.20;6.70;;;;;;;;;;5034475;28;20029;-53
2022/01/12 04:35:23;;;;;;;7.27;5.13;;;;;;;;;;5034962;28;20386;-55
2022/01/12 04:37:50;;;;;;;8.90;6.97;;;;;;;;;;5045519;28;20083;-53
2022/01/12 04:40:16;;;;;;;8.57;6.50;;;;;;;;;;5054648;28;20082;-52
2022/01/12 04:42:42;;;;;;;7.30;5.67;;;;;;;;;;5053263;28;20029;-50
2022/01/12 04:45:19;;;;;;;9.77;8.40;;;;;;;;;;5054557;28;20029;-49
2022/01/12 04:50:24;;;;;;;9.33;7.97;;;;;;;;;;5054258;28;20039;-53
2022/01/12 04:52:50;;;;;;;9.67;6.30;;;;;;;;;;5054188;28;20021;-51
2022/01/12 04:55:16;;;;;;;6.63;6.10;;;;;;;;;;5054486;28;20078;-54
2022/01/12 04:57:42;;;;;;;10.20;6.20;;;;;;;;;;5053673;28;20044;-52
2022/01/12 05:00:14;;;;;;;10.53;7.13;;;;;;;;;;5053501;28;20553;-55
2022/01/12 05:08:19;;;;;;;9.53;7.30;;;;;;;;;;5053440;28;20047;-53
2022/01/12 05:13:31;;;;;;;11.27;7.83;;;;;;;;;;5053457;28;20056;-50
2022/01/12 05:15:58;;;;;;;9.90;8.60;;;;;;;;;;5054075;28;20455;-54
2022/01/12 05:18:24;;;;;;;7.87;7.13;;;;;;;;;;5053163;28;20032;-51
2022/01/12 05:20:50;;;;;;;10.73;7.97;;;;;;;;;;5053373;28;20094;-54
2022/01/12 05:23:16;;;;;;;9.60;7.17;;;;;;;;;;5053610;28;20386;-54
2022/01/12 05:25:42;;;;;;;8.73;7.83;;;;;;;;;;5053426;28;20056;-54
2022/01/12 05:28:08;;;;;;;8.63;7.30;;;;;;;;;;5053149;28;20040;-55
2022/01/12 05:30:34;;;;;;;10.97;7.83;;;;;;;;;;5053574;28;20041;-54
2022/01/12 05:33:00;;;;;;;9.40;8.40;;;;;;;;;;5053209;28;20024;-55
2022/01/12 05:35:32;;;;;;;8.10;6.87;;;;;;;;;;5053334;28;20398;-55
2022/01/12 05:37:58;;;;;;;9.97;8.80;;;;;;;;;;5052555;28;20032;-55
2022/01/12 05:40:24;;;;;;;12.30;8.90;;;;;;;;;;5053174;28;20486;-53
2022/01/12 05:42:51;;;;;;;10.50;9.43;;;;;;;;;;5053681;28;20047;-55
2022/01/12 05:45:19;;;;;;;11.17;8.07;;;;;;;;;;5053466;28;20041;-55
2022/01/12 05:50:13;;;;;;;12.63;10.03;;;;;;;;;;5053044;28;20120;-54
2022/01/12 05:52:39;;;;;;;11.50;9.63;;;;;;;;;;5053195;28;20087;-52
2022/01/12 05:55:06;;;;;;;12.23;10.60;;;;;;;;;;5053163;28;20443;-53
2022/01/12 05:57:32;;;;;;;12.53;9.47;;;;;;;;;;5052906;28;20024;-54
2022/01/12 05:59:58;;;;;;;12.43;9.27;;;;;;;;;;5052182;28;20674;-53
2022/01/12 06:02:24;;;;;;;10.47;9.47;;;;;;;;;;5042501;28;20444;-53
2022/01/12 06:04:50;;;;;;;9.77;8.83;;;;;;;;;;5033069;28;20071;-53
2022/01/12 06:07:16;;;;;;;11.73;9.93;;;;;;;;;;5032737;28;20061;-56
2022/01/12 06:09:42;;;;;;;9.30;7.83;;;;;;;;;;5033748;28;20057;-53
2022/01/12 06:12:09;;;;;;;10.90;9.27;;;;;;;;;;5051908;28;20107;-56
2022/01/12 06:14:35;;;;;;;9.67;8.77;;;;;;;;;;5052128;28;20493;-52
2022/01/12 06:17:01;;;;;;;16.00;10.60;;;;;;;;;;5052654;28;20035;-54
2022/01/12 06:19:27;;;;;;;11.20;9.80;;;;;;;;;;5052089;28;20426;-51
2022/01/12 06:21:53;;;;;;;10.97;9.80;;;;;;;;;;5051467;28;20051;-55
2022/01/12 06:24:19;;;;;;;12.90;10.80;;;;;;;;;;5052849;28;20025;-55
2022/01/12 06:26:46;;;;;;;13.73;10.23;;;;;;;;;;5052376;28;20100;-56
2022/01/12 06:31:45;;;;;;;12.27;9.63;;;;;;;;;;5050777;28;20060;-54
2022/01/12 06:34:12;;;;;;;11.60;10.37;;;;;;;;;;5052050;28;20029;-51
2022/01/12 06:36:38;;;;;;;10.27;9.27;;;;;;;;;;5052546;28;20021;-55
2022/01/12 06:39:09;;;;;;;11.83;9.80;;;;;;;;;;5051769;28;20037;-55
2022/01/12 06:41:36;;;;;;;14.70;11.50;;;;;;;;;;5052166;28;20478;-54
2022/01/12 06:44:02;;;;;;;9.93;8.83;;;;;;;;;;5051463;28;20479;-53
2022/01/12 06:46:30;;;;;;;12.73;10.37;;;;;;;;;;5052317;28;20032;-54
2022/01/12 06:48:56;;;;;;;9.50;7.60;;;;;;;;;;5051304;28;20028;-51
2022/01/12 06:51:22;;;;;;;12.83;9.40;;;;;;;;;;5052629;28;20025;-50
2022/01/12 06:53:48;;;;;;;16.10;10.30;;;;;;;;;;5052002;28;20108;-53
2022/01/12 06:56:17;;;;;;;11.63;8.13;;;;;;;;;;5052272;28;20029;-54
2022/01/12 06:58:43;;;;;;;14.03;11.03;;;;;;;;;;5051423;28;20378;-53
2022/01/12 07:01:09;;;;;;;11.23;10.10;;;;;;;;;;5051987;28;20033;-49
2022/01/12 07:03:35;;;;;;;12.97;10.47;;;;;;;;;;5051660;28;20021;-56
2022/01/12 07:06:01;;;;;;;12.17;9.07;;;;;;;;;;5055514;28;20052;-56
2022/01/12 07:08:27;;;;;;;14.00;10.67;;;;;;;;;;5058178;28;20032;-52
2022/01/12 07:10:53;;;;;;;13.37;10.40;;;;;;;;;;5058879;28;20021;-50
2022/01/12 07:13:19;;;;;;;16.83;12.50;;;;;;;;;;5058648;28;20056;-52
2022/01/12 07:15:45;;;;;;;11.13;10.03;;;;;;;;;;5058246;28;20029;-52
2022/01/12 07:18:12;;;;;;;12.77;11.47;;;;;;;;;;5057603;28;20047;-54
2022/01/12 07:20:38;;;;;;;11.80;9.53;;;;;;;;;;5058751;28;20104;-53
2022/01/12 07:23:04;;;;;;;11.77;10.43;;;;;;;;;;5058376;28;20041;-52
2022/01/12 07:25:30;;;;;;;12.50;11.17;;;;;;;;;;5058362;28;20041;-54
2022/01/12 07:27:56;;;;;;;12.73;9.83;;;;;;;;;;5057864;28;20032;-50
2022/01/12 07:30:24;;;;;;;10.97;9.87;;;;;;;;;;5058779;28;20029;-52
2022/01/12 07:32:50;;;;;;;14.20;11.93;;;;;;;;;;5058276;28;20024;-51
2022/01/12 07:35:16;;;;;;;13.30;9.07;;;;;;;;;;5058124;28;20079;-51
2022/01/12 07:37:42;;;;;;;11.60;10.20;;;;;;;;;;5057949;28;20429;-52
2022/01/12 07:40:08;;;;;;;12.73;11.43;;;;;;;;;;5058155;28;20078;-50
2022/01/12 07:42:35;;;;;;;12.67;11.27;;;;;;;;;;5058228;28;20493;-52
2022/01/12 07:45:01;;;;;;;18.23;10.23;;;;;;;;;;5058498;28;20533;-53
2022/01/12 07:47:31;;;;;;;12.40;11.17;;;;;;;;;;5058249;28;20075;-51
2022/01/12 07:49:58;;;;;;;14.40;11.75;;;;;;;;;;5057523;28;20104;-53
2022/01/12 07:52:24;;;;;;;15.50;11.17;;;;;;;;;;5057955;28;20055;-54
2022/01/12 07:54:50;;;;;;;12.77;11.37;;;;;;;;;;5058728;28;20166;-51
2022/01/12 07:57:16;;;;;;;16.23;12.23;;;;;;;;;;5057885;28;20138;-55
2022/01/12 07:59:42;;;;;;;14.93;11.90;;;;;;;;;;5057422;28;20028;-54
2022/01/12 08:02:08;;;;;;;13.00;11.63;;;;;;;;;;5058040;28;20526;-54
2022/01/12 08:04:35;;;;;;;10.90;9.83;;;;;;;;;;5058233;28;20029;-54
2022/01/12 08:07:03;;;;;;;12.57;10.77;;;;;;;;;;5057897;28;20103;-50
2022/01/12 08:09:29;;;;;;;14.90;11.07;;;;;;;;;;5057480;28;20035;-52
2022/01/12 08:11:55;;;;;;;14.67;11.30;;;;;;;;;;5057992;28;20159;-56
2022/01/12 08:14:21;;;;;;;12.70;10.30;;;;;;;;;;5057878;28;20017;-56
2022/01/12 08:16:46;;;;;;;14.27;10.80;;;;;;;;;;5057036;28;20029;-52
2022/01/12 08:19:16;;;;;;;12.77;11.10;;;;;;;;;;5052515;28;20379;-56
2022/01/12 08:21:42;;;;;;;11.20;8.73;;;;;;;;;;5053338;28;20117;-55
2022/01/12 08:24:10;;;;;;;11.97;10.60;;;;;;;;;;5052746;28;20108;-54
2022/01/12 08:26:36;;;;;;;15.30;11.10;;;;;;;;;;5052608;28;20052;-55
2022/01/12 08:29:03;;;;;;;13.83;11.97;;;;;;;;;;5046553;28;20060;-52
2022/01/12 08:31:29;;;;;;;17.63;12.30;;;;;;;;;;5045569;28;20028;-55
2022/01/12 08:33:55;;;;;;;17.80;11.80;;;;;;;;;;5054037;28;20413;-55
2022/01/12 08:36:21;;;;;;;16.13;12.93;;;;;;;;;;5054454;28;20029;-56
2022/01/12 08:38:47;;;;;;;13.97;11.80;;;;;;;;;;5053952;28;20438;-55
2022/01/12 08:41:14;;;;;;;14.20;12.63;;;;;;;;;;5054965;28;20036;-56
2022/01/12 08:43:40;;;;;;;14.00;11.87;;;;;;;;;;5054266;28;20025;-56
2022/01/12 08:46:06;;;;;;;16.23;12.10;;;;;;;;;;5054717;28;20167;-53
2022/01/12 08:48:32;;;;;;;14.43;11.53;;;;;;;;;;5052693;28;20033;-53
2022/01/12 08:50:58;;;;;;;13.73;11.33;;;;;;;;;;5052998;28;20039;-55
2022/01/12 08:53:25;;;;;;;16.17;11.33;;;;;;;;;;5052489;28;20032;-53
2022/01/12 08:55:50;;;;;;;15.90;12.73;;;;;;;;;;5052053;28;20036;-55
2022/01/12 08:58:16;;;;;;;14.17;12.43;;;;;;;;;;5051394;28;20048;-55
2022/01/12 09:00:43;;;;;;;15.53;12.53;;;;;;;;;;5053095;28;20029;-56
2022/01/12 09:03:09;;;;;;;14.13;12.03;;;;;;;;;;5037206;28;20045;-56
2022/01/12 09:05:35;;;;;;;14.97;12.70;;;;;;;;;;5044463;28;20033;-54
2022/01/12 09:08:01;;;;;;;12.43;11.13;;;;;;;;;;5053193;28;20394;-55
2022/01/12 09:10:27;;;;;;;12.53;11.27;;;;;;;;;;5053799;28;20112;-55
2022/01/12 09:12:53;;;;;;;16.43;12.60;;;;;;;;;;5053891;28;20276;-55
2022/01/12 09:15:24;;;;;;;14.07;9.87;;;;;;;;;;5053853;28;20053;-53
2022/01/12 09:17:51;;;;;;;14.87;11.10;;;;;;;;;;5053427;28;20029;-54
2022/01/12 09:20:17;;;;;;;12.37;10.33;;;;;;;;;;5053783;28;20037;-56
2022/01/12 09:22:43;;;;;;;12.23;10.97;;;;;;;;;;5053633;28;20040;-56
2022/01/12 09:25:09;;;;;;;12.87;11.23;;;;;;;;;;5053229;28;20041;-56
2022/01/12 09:27:35;;;;;;;15.93;11.63;;;;;;;;;;5053695;28;20035;-55
2022/01/12 09:30:01;;;;;;;11.00;9.70;;;;;;;;;;5051993;28;20025;-52
2022/01/12 09:32:27;;;;;;;12.00;9.37;;;;;;;;;;5053521;28;20067;-54
2022/01/12 09:34:53;;;;;;;11.70;10.53;;;;;;;;;;5053425;28;20047;-56
2022/01/12 09:37:21;;;;;;;14.23;11.17;;;;;;;;;;5053324;28;20041;-53
2022/01/12 09:39:47;;;;;;;10.60;9.60;;;;;;;;;;5052291;28;20029;-56
2022/01/12 09:42:13;;;;;;;11.27;9.43;;;;;;;;;;5053462;28;20027;-55
2022/01/12 09:44:45;;;;;;;12.53;10.83;;;;;;;;;;5053457;28;20025;-55
2022/01/12 09:47:11;;;;;;;13.47;10.27;;;;;;;;;;5053576;28;20048;-56
2022/01/12 09:49:37;;;;;;;12.77;8.80;;;;;;;;;;5052244;28;20025;-53
2022/01/12 09:52:04;;;;;;;13.67;10.40;;;;;;;;;;5053334;28;20447;-55
2022/01/12 09:54:30;;;;;;;16.03;8.70;;;;;;;;;;5052692;28;20462;-54
2022/01/12 09:56:57;;;;;;;13.47;11.27;;;;;;;;;;5053327;28;20025;-51
2022/01/12 09:59:23;;;;;;;11.60;9.93;;;;;;;;;;5052155;28;20043;-56
2022/01/12 10:01:52;;;;;;;12.50;10.17;;;;;;;;;;5047034;28;20040;-54
2022/01/12 10:04:20;;;;;;;10.83;9.70;;;;;;;;;;5032606;28;20112;-54
2022/01/12 10:06:47;;;;;;;9.40;7.77;;;;;;;;;;5035336;28;20021;-52
2022/01/12 10:09:14;;;;;;;11.03;9.30;;;;;;;;;;5052189;28;20033;-55
2022/01/12 10:11:51;;;;;;;14.93;9.67;;;;;;;;;;5052954;28;20025;-56
2022/01/12 10:14:17;;;;;;;10.40;8.77;;;;;;;;;;5052926;28;20050;-54
2022/01/12 10:16:57;;;;;;;9.00;8.10;;;;;;;;;;5052535;28;20574;-55
2022/01/12 10:19:30;;;;;;;11.40;8.70;;;;;;;;;;5051878;28;20087;-56
2022/01/12 10:21:56;;;;;;;11.80;9.20;;;;;;;;;;5052919;28;20071;-52
2022/01/12 10:24:23;;;;;;;9.67;8.67;;;;;;;;;;5052840;28;20061;-53
2022/01/12 10:26:50;;;;;;;12.40;9.40;;;;;;;;;;5052434;28;20067;-56
2022/01/12 10:29:18;;;;;;;10.63;9.43;;;;;;;;;;5051899;28;20025;-54
2022/01/12 10:31:44;;;;;;;11.63;9.70;;;;;;;;;;5052228;28;20029;-55
2022/01/12 10:34:10;;;;;;;10.80;9.33;;;;;;;;;;5052175;28;20360;-53
2022/01/12 10:36:37;;;;;;;12.27;9.00;;;;;;;;;;5052090;28;20067;-52
2022/01/12 10:39:10;;;;;;;9.83;8.60;;;;;;;;;;5051810;28;20033;-52
2022/01/12 10:41:36;;;;;;;10.80;9.70;;;;;;;;;;5051521;28;20505;-52
2022/01/12 10:44:03;;;;;;;9.70;8.70;;;;;;;;;;5052421;28;20036;-51
2022/01/12 10:46:30;;;;;;;11.40;9.70;;;;;;;;;;5052151;28;20036;-53
2022/01/12 10:48:57;;;;;;;11.40;8.97;;;;;;;;;;5051217;28;20032;-54
2022/01/12 10:51:25;;;;;;;9.67;7.93;;;;;;;;;;5052633;28;20029;-56
2022/01/12 10:53:52;;;;;;;10.97;9.67;;;;;;;;;;5052133;28;20029;-56
2022/01/12 10:56:19;;;;;;;10.03;8.17;;;;;;;;;;5052104;28;20029;-56
2022/01/12 10:58:46;;;;;;;9.53;8.53;;;;;;;;;;5039233;28;20036;-54
2022/01/12 11:01:13;;;;;;;10.73;8.93;;;;;;;;;;5051830;28;20036;-56
2022/01/12 11:03:40;;;;;;;9.93;8.43;;;;;;;;;;5052270;28;20044;-53
2022/01/12 11:06:07;;;;;;;11.13;9.73;;;;;;;;;;5052046;28;20108;-52
2022/01/12 11:08:34;;;;;;;13.00;8.27;;;;;;;;;;5051303;28;20037;-56
2022/01/12 11:11:00;;;;;;;9.67;8.70;;;;;;;;;;5051853;28;20104;-54
2022/01/12 11:13:27;;;;;;;12.57;10.20;;;;;;;;;;5051841;28;20060;-54
2022/01/12 11:15:53;;;;;;;15.10;8.50;;;;;;;;;;5052126;28;20029;-55
2022/01/12 11:18:24;;;;;;;9.50;8.03;;;;;;;;;;5051118;28;20063;-54
2022/01/12 11:20:51;;;;;;;12.83;10.23;;;;;;;;;;5052136;28;20132;-56
2022/01/12 11:23:19;;;;;;;9.63;8.57;;;;;;;;;;5051884;28;20033;-54
2022/01/12 11:25:47;;;;;;;9.83;8.77;;;;;;;;;;5051589;28;20502;-55
2022/01/12 11:28:15;;;;;;;16.60;9.80;;;;;;;;;;5050511;28;20029;-56
2022/01/12 11:30:59;;;;;;;11.40;8.13;;;;;;;;;;5051732;28;20049;-56
2022/01/12 11:33:31;;;;;;;9.80;8.90;;;;;;;;;;5051875;28;20021;-55
2022/01/12 11:36:02;;;;;;;10.50;9.47;;;;;;;;;;5051602;28;20040;-54
2022/01/12 11:38:35;;;;;;;10.05;8.52;;;;;;;;;;5050892;28;20033;-55
2022/01/12 11:41:11;;;;;;;9.53;8.10;;;;;;;;;;5051836;28;20375;-54
2022/01/12 11:43:42;;;;;;;12.03;9.03;;;;;;;;;;5051871;28;20029;-52
2022/01/12 11:46:12;;;;;;;11.05;8.73;;;;;;;;;;5051358;28;20112;-54
2022/01/12 11:48:48;;;;;;;10.48;8.98;;;;;;;;;;5051133;28;20029;-54
2022/01/12 11:51:15;;;;;;;11.57;9.70;;;;;;;;;;5051574;28;20491;-53
2022/01/12 11:53:44;;;;;;;10.47;9.00;;;;;;;;;;5055685;28;20033;-55
2022/01/12 11:56:15;;;;;;;11.33;8.17;;;;;;;;;;5055323;28;20056;-54
2022/01/12 11:58:50;;;;;;;7.80;7.03;;;;;;;;;;5054770;28;20033;-55
2022/01/12 12:01:16;;;;;;;15.67;9.37;;;;;;;;;;5054247;28;20032;-55
2022/01/12 12:03:43;;;;;;;11.13;9.43;;;;;;;;;;5035181;28;20061;-55
2022/01/12 12:06:20;;;;;;;13.97;12.37;;;;;;;;;;5045860;28;20101;-55
2022/01/12 12:09:12;;;;;;;10.60;9.33;;;;;;;;;;5054681;28;20348;-53
2022/01/12 12:11:38;;;;;;;11.30;10.17;;;;;;;;;;5054861;28;20454;-55
2022/01/12 12:14:05;;;;;;;11.17;9.93;;;;;;;;;;5054929;28;20021;-55
2022/01/12 12:16:32;;;;;;;12.17;9.43;;;;;;;;;;5054877;28;20029;-53
2022/01/12 12:18:58;;;;;;;13.57;10.80;;;;;;;;;;5054480;28;20033;-56
2022/01/12 12:21:24;;;;;;;14.20;10.53;;;;;;;;;;5055115;28;20020;-54
2022/01/12 12:23:52;;;;;;;13.43;9.67;;;;;;;;;;5054910;28;20355;-54
2022/01/12 12:26:19;;;;;;;14.63;9.60;;;;;;;;;;5054389;28;20036;-56
2022/01/12 12:28:52;;;;;;;12.13;8.90;;;;;;;;;;5054391;28;20112;-56
2022/01/12 12:31:25;;;;;;;13.00;9.80;;;;;;;;;;5054832;28;20025;-55
2022/01/12 12:34:04;;;;;;;14.30;10.47;;;;;;;;;;5054765;28;20076;-55
2022/01/12 12:36:30;;;;;;;12.60;9.30;;;;;;;;;;5054442;28;20044;-55
2022/01/12 12:39:11;;;;;;;11.70;9.87;;;;;;;;;;5053771;28;20429;-56
2022/01/12 12:41:37;;;;;;;;;;;;;;;;;;5055046;28;20040;-54
2022/01/12 12:44:03;;;;;;;11.80;8.80;;;;;;;;;;5054571;28;20359;-53
2022/01/12 12:46:29;;;;;;;15.47;10.40;;;;;;;;;;5054000;28;20029;-56
2022/01/12 12:48:55;;;;;;;10.80;8.53;;;;;;;;;;5053491;28;20094;-55
2022/01/12 12:51:21;;;;;;;13.63;9.30;;;;;;;;;;5054085;28;20021;-55
2022/01/12 12:53:48;;;;;;;10.27;9.23;;;;;;;;;;5054290;28;20032;-56
2022/01/12 12:56:16;;;;;;;9.67;8.67;;;;;;;;;;5054016;28;20029;-56
2022/01/12 12:58:48;;;;;;;11.03;9.63;;;;;;;;;;5053548;28;20124;-52
2022/01/12 13:01:15;;;;;;;9.73;8.23;;;;;;;;;;5053526;28;20032;-55
2022/01/12 13:03:48;;;;;;;10.77;8.90;;;;;;;;;;5037446;28;20463;-55
2022/01/12 13:06:27;;;;;;;12.67;9.33;;;;;;;;;;5053253;28;20033;-52
2022/01/12 13:09:03;;;;;;;15.47;9.73;;;;;;;;;;5053470;28;20113;-56
2022/01/12 13:11:30;;;;;;;12.43;9.63;;;;;;;;;;5053931;28;20470;-56
2022/01/12 13:13:56;;;;;;;10.77;9.23;;;;;;;;;;5053773;28;20036;-54
2022/01/12 13:16:24;;;;;;;12.03;9.93;;;;;;;;;;5053691;28;20112;-55
2022/01/12 13:18:50;;;;;;;10.80;8.77;;;;;;;;;;5053332;28;20040;-55
2022/01/12 13:21:17;;;;;;;12.47;9.53;;;;;;;;;;5054039;28;20079;-54
2022/01/12 13:23:49;;;;;;;11.20;9.47;;;;;;;;;;5053435;28;20459;-54
2022/01/12 13:26:16;;;;;;;9.30;8.07;;;;;;;;;;5054021;28;20056;-51
2022/01/12 13:28:44;;;;;;;13.07;10.73;;;;;;;;;;5052839;28;20043;-52
2022/01/12 13:31:12;;;;;;;9.80;8.47;;;;;;;;;;5053592;28;20029;-56
2022/01/12 13:33:39;;;;;;;10.70;8.87;;;;;;;;;;5053334;28;20025;-53
2022/01/12 13:36:31;;;;;;;11.07;9.27;;;;;;;;;;5053509;28;20048;-54
2022/01/12 13:38:59;;;;;;;9.97;8.87;;;;;;;;;;5032447;28;20172;-56
2022/01/12 13:41:27;;;;;;;11.57;8.93;;;;;;;;;;5033344;28;20034;-55
2022/01/12 13:44:08;;;;;;;10.53;8.03;;;;;;;;;;5038700;28;20360;-55
2022/01/12 13:46:39;;;;;;;10.50;8.83;;;;;;;;;;5053658;28;20033;-53
2022/01/12 13:51:37;;;;;;;9.30;7.77;;;;;;;;;;5053364;28;19912;-56
2022/01/12 13:54:07;;;;;;;11.50;8.00;;;;;;;;;;5052717;28;20428;-53
2022/01/12 13:56:35;;;;;;;8.95;7.10;;;;;;;;;;5053213;28;20043;-53
2022/01/12 13:59:01;;;;;;;13.03;8.80;;;;;;;;;;5052153;28;20091;-54
2022/01/12 14:01:30;;;;;;;9.73;8.40;;;;;;;;;;5050788;28;20016;-55
2022/01/12 14:04:07;;;;;;;10.63;9.57;;;;;;;;;;5041091;28;20021;-53
2022/01/12 14:06:38;;;;;;;10.03;8.27;;;;;;;;;;5052656;28;20047;-56
2022/01/12 14:09:09;;;;;;;11.50;8.77;;;;;;;;;;5052355;28;20113;-56
2022/01/12 14:11:37;;;;;;;11.90;8.17;;;;;;;;;;5052984;28;20021;-54
2022/01/12 14:14:04;;;;;;;13.27;9.37;;;;;;;;;;5052392;28;20244;-55
2022/01/12 14:16:37;;;;;;;13.33;9.43;;;;;;;;;;5052128;28;20111;-53
2022/01/12 14:19:03;;;;;;;14.47;8.67;;;;;;;;;;5051706;28;20047;-56
2022/01/12 14:21:30;;;;;;;9.87;8.23;;;;;;;;;;5052848;28;20033;-54
2022/01/12 14:23:56;;;;;;;10.50;8.20;;;;;;;;;;5051942;28;20044;-54
2022/01/12 14:26:42;;;;;;;14.00;8.60;;;;;;;;;;5052306;28;20035;-56
2022/01/12 14:29:09;;;;;;;8.87;7.70;;;;;;;;;;5051663;28;20171;-53
2022/01/12 14:31:35;;;;;;;9.00;7.83;;;;;;;;;;5051881;28;20107;-52
2022/01/12 14:34:02;;;;;;;11.80;8.87;;;;;;;;;;5050007;28;20032;-54
2022/01/12 14:36:28;;;;;;;10.97;8.53;;;;;;;;;;5051483;28;20159;-54
2022/01/12 14:38:54;;;;;;;11.00;9.63;;;;;;;;;;5051643;28;20036;-54
2022/01/12 14:41:20;;;;;;;12.97;8.93;;;;;;;;;;5052430;28;20029;-51
2022/01/12 14:43:49;;;;;;;10.43;8.90;;;;;;;;;;5051751;28;20070;-53
2022/01/12 14:46:15;;;;;;;11.27;7.97;;;;;;;;;;5052381;28;20044;-53
2022/01/12 14:48:41;;;;;;;11.53;8.67;;;;;;;;;;5051701;28;20032;-51
2022/01/12 14:51:07;;;;;;;11.63;9.07;;;;;;;;;;5052471;28;20025;-54
2022/01/12 14:53:33;;;;;;;9.57;8.23;;;;;;;;;;5051848;28;20085;-55
2022/01/12 14:56:00;;;;;;;10.17;9.07;;;;;;;;;;5052128;28;20021;-54
2022/01/12 14:58:27;;;;;;;9.87;8.10;;;;;;;;;;5051152;28;20036;-51
2022/01/12 15:00:54;;;;;;;11.13;9.10;;;;;;;;;;5051444;28;20041;-56
2022/01/12 15:03:21;;;;;;;12.43;8.87;;;;;;;;;;5051751;28;20025;-54
2022/01/12 15:05:47;;;;;;;10.70;7.83;;;;;;;;;;5051962;28;20033;-55
2022/01/12 15:08:15;;;;;;;12.47;8.57;;;;;;;;;;5051334;28;20106;-55
2022/01/12 15:10:42;;;;;;;10.03;8.90;;;;;;;;;;5052116;28;20033;-52
2022/01/12 15:13:21;;;;;;;10.53;7.90;;;;;;;;;;5051369;28;20032;-52
2022/01/12 15:15:54;;;;;;;13.57;9.17;;;;;;;;;;5051990;28;20086;-55
2022/01/12 15:18:21;;;;;;;8.97;8.07;;;;;;;;;;5051255;28;20032;-56
2022/01/12 15:20:48;;;;;;;9.73;8.53;;;;;;;;;;5051958;28;20475;-52
2022/01/12 15:23:14;;;;;;;9.90;8.87;;;;;;;;;;5051312;28;20036;-55
2022/01/12 15:25:40;;;;;;;9.93;7.93;;;;;;;;;;5051829;28;20098;-55
2022/01/12 15:28:07;;;;;;;11.87;9.33;;;;;;;;;;5054390;28;20478;-52
2022/01/12 15:30:33;;;;;;;15.23;8.93;;;;;;;;;;5056123;28;20364;-56
2022/01/12 15:32:59;;;;;;;13.97;9.47;;;;;;;;;;5055653;28;20112;-54
2022/01/12 15:35:25;;;;;;;9.13;8.23;;;;;;;;;;5055171;28;20028;-53
2022/01/12 15:37:51;;;;;;;11.93;9.60;;;;;;;;;;5054937;28;20043;-52
2022/01/12 15:40:17;;;;;;;15.73;10.57;;;;;;;;;;5055531;28;20106;-54
2022/01/12 15:42:45;;;;;;;11.13;9.40;;;;;;;;;;5055571;28;20127;-53
2022/01/12 15:45:11;;;;;;;9.70;7.37;;;;;;;;;;5055446;28;20036;-54
2022/01/12 15:47:37;;;;;;;13.27;8.67;;;;;;;;;;5055584;28;20056;-52
2022/01/12 15:50:06;;;;;;;10.77;9.47;;;;;;;;;;5054757;28;20032;-53
2022/01/12 15:52:32;;;;;;;15.10;9.93;;;;;;;;;;5054972;28;20112;-51
2022/01/12 15:54:58;;;;;;;11.83;9.63;;;;;;;;;;5055096;28;20036;-54
2022/01/12 15:57:24;;;;;;;11.17;9.47;;;;;;;;;;5055626;28;20024;-53